Impacts TAF Board INFO
FOR SITUATIONAL AWARENESS. NOT TO BE USED FOR FLIGHT PLANNING PURPOSES.
IDs:

KIAD - Washington/Dulles In, VA, US

Issued at 2100 UTC 19 Jun 2018
Updated at 2206 UTC 19 Jun 2018
Potential Impact None Slight Moderate High
Time<<20/23Z 21/00Z 21/01Z 21/02Z 21/03Z 21/04Z 21/05Z 21/06Z 21/07Z 21/08Z 21/09Z 21/10Z 21/11Z
Type PRVL
VIS >6
CIG 50
Cover OVC
FltCat VFR
WX -SHRA
WDir 150
WSpd 5
WGst --

Raw TAF
KIAD 192100Z 1921/2024 36007KT P6SM SCT050 BKN150
  FM200500 02005KT P6SM BKN050 BKN130
  FM201400 VRB04KT P6SM BKN050
  FM202200 15005KT P6SM -SHRA BKN050 OVC130


METAR Board
Radar Display
Forecast Discussion

FOR SITUATIONAL AWARENESS. NOT TO BE USED FOR FLIGHT PLANNING PURPOSES.